West Point, IA (52656)

4:29 AM CDT on September 16, 2014 (GMT -0500)
River Bend Condos | Change Station
CLOSE
Current Station
Personal Weather Station
Location: Fort Madison, IA
Elevation: 535 ft
Nearby Weather Stations

Elev 535 ft 40.63 °N, 91.37 °W | Updated 49 seconds ago

Clear
Clear
45.5 °F
Feels Like 46 °F
N
0.0
Wind Variable Wind from ENE

Today
High -- | Low -- °F
--% Chance of Precip.
Yesterday
High -- | Low -- °F
Precip. -- in
6:47 AM 7:13 PM
Waning Gibbous, 47% visible
Pressure 30.24 in
Visibility 7.0 miles
Clouds Clear
Windchill 46 °F
Dew Point 44 °F
Humidity 95%
Rainfall 0.00 in
Snow Depth Not available.
UV 0 out of 12
Pollen 4.10 out of 12
Air Quality Not available.
Flu Activity Not available.
METAR KFSW 160915Z AUTO 00000KT 7SM CLR 08/08 A3024 RMK AO2

More Conditions Fewer Conditions

Pressure 30.24 in
Visibility 7.0 miles
Clouds Clear
Windchill 46 °F
Dew Point 44 °F
Humidity 95%
Rainfall 0.00 in
Snow Depth Not available.
UV 0 out of 12
Pollen 4.10 out of 12
Air Quality Not available.
Flu Activity Not available.
METAR KFSW 160915Z AUTO 00000KT 7SM CLR 08/08 A3024 RMK AO2

More Conditions Fewer Conditions

10-Day Weather Forecast

Almanac

Astronomy

Sep. 16, 2014 Rise Set
Actual Time 6:47 AM CDT 7:13 PM CDT
Civil Twilight 6:20 AM CDT 7:40 PM CDT
Nautical Twilight 5:47 AM CDT 8:12 PM CDT
Astronomical Twilight 5:14 AM CDT 8:45 PM CDT
Moon No Moon Rise 2:38 PM CDT
Length of Visible Light 13h 20m
Length of Day
12h 25m
Tomorrow will be 2m 40s shorter.
Waning Gibbous, 47% of the Moon is Illuminated
Today
Waning Gibbous
Sep 24
New
Oct 1
First Quarter
Oct 8
Full
Oct 15
Last Quarter

Today's Extremes

State Highs State Lows

Community

WunderPhotos

Upload Photos

1,753,714 photos uploaded!

WunderBlogs® & News

Nearby

Snow Depth

Station Depth Elevation
No new snow has been reported.

Earthquake Activity

City Distance Mag. Time & Date
No recent earthquake activity has been reported nearby.
Minimum magnitude displayed is 2.5.

Coastal Water Temperatures

Place Temperature
No Stations Reporting

Nearby Weather Stations